CheckWX is a tool to help pilots better visualize weather data.  It is not intended as a substitute for an official pre-flight weather briefing.

10:43:01 UTC

EDDT METAR
Berlin-Tegel International Airport
Berlin, Germany
Current

23 mins ago

EDDT 191020Z 25013KT 9999 SCT033 21/12 Q1015 NOSIG
Observed
Aug-19 @ 10:20 UTC
Wind
  • 250° at 13 KTS
Visibility
10,000+ meters
Flight Rules
VFR
Cloud Levels
  • Scattered at 3,300' AGL
Temperature
21°C / 70°F
Dewpoint
12°C / 54°F
Humidity
57%
Altimeter
29.97" Hg
Pressure
1014.92 hPa
Previous

53 mins ago

EDDT 190950Z 24009KT 210V270 9999 SCT025 21/13 Q1015 NOSIG
Observed
Aug-19 @ 09:50 UTC
Wind
  • 240° at 9 KTS
Visibility
10,000+ meters
Flight Rules
VFR
Cloud Levels
  • Scattered at 2,500' AGL
Temperature
21°C / 70°F
Dewpoint
13°C / 55°F
Humidity
60%
Altimeter
29.97" Hg
Pressure
1014.92 hPa
Previous

1 hour ago

EDDT 190920Z 25010KT 200V280 9999 SCT019 20/14 Q1015 NOSIG
Observed
Aug-19 @ 09:20 UTC
Wind
  • 250° at 10 KTS
Visibility
10,000+ meters
Flight Rules
VFR
Cloud Levels
  • Scattered at 1,900' AGL
Temperature
20°C / 68°F
Dewpoint
14°C / 57°F
Humidity
69%
Altimeter
29.97" Hg
Pressure
1014.92 hPa